Bryan, OH (43506)

1:25 AM EST on February 09, 2016 (GMT -0500)
APRSWXNET | | Change Station
CLOSE
Current Station
Personal Weather Station
Location: Bryan, OH
Elevation: 774 ft
Nearby Weather Stations

Elev 774 ft 41.46 °N, 84.57 °W | Updated 34 minutes ago

Overcast
Overcast
30 °F
Feels Like 25 °F
N
5
Wind Variable Wind from West
Gusts 15.0 mph

Today
High -- | Low -- °F
--% Chance of Precip.
Yesterday
High -- | Low -- °F
Precip. -- in
Pressure 29.65 in
Visibility 10.0 miles
Clouds Mostly Cloudy 1800 ft
Overcast 6000 ft
Windchill 25 °F
Dew Point 27 °F
Humidity 87%
Rainfall in
Snow Depth Not available.
7:41 AM 6:03 PM
New Moon, 1% visible
METAR KDFI 090553Z AUTO 26007KT 240V300 10SM BKN018 OVC060 M01/M04 A2963 RMK AO2 SLP040 T10061044 10017 21006 56006
Pressure 29.65 in
Visibility 10.0 miles
Clouds Mostly Cloudy 1800 ft
Overcast 6000 ft
Windchill 25 °F
Dew Point 27 °F
Humidity 87%
Rainfall in
Snow Depth Not available.
7:41 AM 6:03 PM
New Moon, 1% visible
METAR KDFI 090553Z AUTO 26007KT 240V300 10SM BKN018 OVC060 M01/M04 A2963 RMK AO2 SLP040 T10061044 10017 21006 56006

10-Day Weather Forecast

Almanac

Astronomy

Feb. 09, 2016 Rise Set
Actual Time
Civil Twilight
Nautical Twilight
Astronomical Twilight
Moon
Length of Visible Light
Length of Day
Tomorrow will be .
, % of the Moon is Illuminated

Today's Extremes

State Highs State Lows

Community

WunderPhotos

Upload Photos

1,891,571 photos uploaded!

WunderBlog® & News

Nearby

Air Quality

  Air Quality AQ Index Pollutant
Not available.

Snow Depth

Station Depth Elevation

Earthquake Activity

City Distance Mag. Time & Date
Minimum magnitude displayed is 2.5.

Coastal Water Temperatures

Place Temperature

Stations

Nearby Weather Stations

Station Location Temp. Windchill Dew Point Humidity Wind Precip. Elev Updated Type
                   

Watches & Warnings

There are currently no watches in effect.